KPOU/POU METAR and TAF weather

Enter ICAO airport designator
Station Type Date Time Source
KPOU METAR 2021/01/22 04:53 UTC NOAA

KPOU 220453Z AUTO 00000KT 10SM OVC095 M01/M05 A2956 RMK AO2 SLP008 T10061050 400331094 TSNO


Station Type Date Time Source
KPOU Decoded METAR 2021/01/22 04:53 UTC NOAA

POUGHKEEPSIE DUTCHESS CTY, NY, United States (KPOU) 41-38N 073-53W 46M
Jan 21, 2021 - 11:53 PM EST / 2021.01.22 0453 UTC
Wind: Calm:0
Visibility: 10 mile(s):0
Sky conditions: overcast
Temperature: 30.9 F (-0.6 C)
Dew Point: 23.0 F (-5.0 C)
Relative Humidity: 72%
Pressure (altimeter): 29.56 in. Hg (1001 hPa)
ob: KPOU 220453Z AUTO 00000KT 10SM OVC095 M01/M05 A2956 RMK AO2 SLP008 T10061050 400331094 TSNO
cycle: 5

Station Type Date Time Source
KPOU TAF 2021/01/22 06:33 UTC NOAA

TAF KPOU 220531Z 2206/2306 VRB03KT P6SM VCSH FEW040 BKN090
FM221200 24005KT P6SM BKN040
FM221800 28010G17KT P6SM VCSH BKN040 BKN090
FM230300 29010KT P6SM SCT040

Example: see airport list